Time;durP1;ratioP1;P1;durP2;ratioP2;P2;SDS_P1;SDS_P2;PMS_P1;PMS_P2;Temp;Humidity;BMP_temperature;BMP_pressure;BME280_temperature;BME280_humidity;BME280_pressure;Samples;Min_cycle;Max_cycle;Signal;HPM_P1;HPM_P2
2023/11/29 00:01:01;;;;;;;12.47;6.23;;;;;;;1.15;100.00;95397.84;5075883;28;20207;-69
2023/11/29 00:03:27;;;;;;;12.87;5.70;;;;;;;0.96;100.00;95390.09;5075876;28;20204;-70
2023/11/29 00:05:54;;;;;;;13.53;6.27;;;;;;;1.04;100.00;95395.41;5076145;28;20719;-70
2023/11/29 00:08:21;;;;;;;13.10;6.10;;;;;;;1.08;100.00;95386.38;5076834;28;20229;-69
2023/11/29 00:10:48;;;;;;;11.63;5.80;;;;;;;0.75;100.00;95382.50;5077818;28;20210;-70
2023/11/29 00:13:14;;;;;;;11.67;5.77;;;;;;;0.92;100.00;95386.97;5077458;28;20588;-70
2023/11/29 00:15:41;;;;;;;12.73;6.67;;;;;;;0.91;100.00;95385.31;5076859;28;20207;-70
2023/11/29 00:18:07;;;;;;;12.30;5.60;;;;;;;0.72;100.00;95380.16;5077141;28;20230;-70
2023/11/29 00:20:34;;;;;;;11.83;5.67;;;;;;;0.83;100.00;95377.44;5077007;28;20204;-70
2023/11/29 00:23:00;;;;;;;12.07;5.80;;;;;;;0.78;100.00;95376.22;5076392;28;20209;-70
2023/11/29 00:25:28;;;;;;;12.97;6.03;;;;;;;0.92;100.00;95370.59;5077614;28;20204;-70
2023/11/29 00:27:54;;;;;;;13.37;5.57;;;;;;;0.69;100.00;95364.09;5076665;28;20294;-70
2023/11/29 00:30:21;;;;;;;11.80;6.00;;;;;;;0.78;100.00;95363.25;5075999;28;21005;-70
2023/11/29 00:32:48;;;;;;;13.77;6.13;;;;;;;0.75;100.00;95368.69;5076328;28;20224;-70
2023/11/29 00:35:14;;;;;;;12.97;6.37;;;;;;;0.62;100.00;95368.19;5076545;28;20203;-71
2023/11/29 00:37:41;;;;;;;13.83;6.47;;;;;;;0.62;100.00;95370.78;5076345;28;20227;-70
2023/11/29 00:40:08;;;;;;;13.83;6.70;;;;;;;0.73;100.00;95368.84;5077570;28;20211;-70
2023/11/29 00:42:36;;;;;;;13.33;6.50;;;;;;;0.80;100.00;95377.72;5076654;28;20199;-71
2023/11/29 00:45:03;;;;;;;13.77;6.10;;;;;;;0.69;100.00;95377.06;5075850;28;20681;-71
2023/11/29 00:47:29;;;;;;;13.73;6.10;;;;;;;0.52;100.00;95382.91;5076602;28;20544;-71
2023/11/29 00:49:56;;;;;;;15.03;6.77;;;;;;;0.60;100.00;95380.47;5077249;28;20222;-70
2023/11/29 00:52:22;;;;;;;11.63;6.07;;;;;;;0.72;100.00;95384.53;5076540;28;20684;-70
2023/11/29 00:54:49;;;;;;;13.63;6.43;;;;;;;0.73;100.00;95383.59;5076949;28;20213;-71
2023/11/29 00:57:15;;;;;;;14.53;6.47;;;;;;;0.69;100.00;95382.25;5076247;28;20231;-70
2023/11/29 00:59:43;;;;;;;11.80;6.23;;;;;;;0.78;100.00;95373.63;5076426;28;20215;-71
2023/11/29 01:02:10;;;;;;;13.57;6.10;;;;;;;0.71;100.00;95372.53;5076219;28;20200;-71
2023/11/29 01:04:36;;;;;;;11.33;5.77;;;;;;;0.71;100.00;95367.34;5076110;28;20210;-70
2023/11/29 01:07:03;;;;;;;15.47;7.23;;;;;;;0.73;100.00;95362.84;5076211;28;20204;-70
2023/11/29 01:09:29;;;;;;;12.90;5.43;;;;;;;0.67;100.00;95366.00;5076579;28;20224;-70
2023/11/29 01:11:56;;;;;;;12.17;6.30;;;;;;;0.63;100.00;95360.25;5076579;28;20737;-70
2023/11/29 01:14:22;;;;;;;15.30;6.60;;;;;;;0.58;100.00;95362.44;5076373;28;20210;-71
2023/11/29 01:16:50;;;;;;;12.60;6.23;;;;;;;0.69;100.00;95358.91;5076093;28;20203;-71
2023/11/29 01:19:17;;;;;;;13.03;6.03;;;;;;;0.60;100.00;95365.72;5075981;28;20224;-70
2023/11/29 01:21:43;;;;;;;12.67;5.80;;;;;;;0.53;100.00;95371.59;5076427;28;20606;-71
2023/11/29 01:24:10;;;;;;;13.87;6.10;;;;;;;0.40;100.00;95384.03;5076261;28;20200;-70
2023/11/29 01:26:36;;;;;;;12.57;5.87;;;;;;;0.35;100.00;95372.44;5075967;28;20195;-69
2023/11/29 01:29:03;;;;;;;14.63;6.37;;;;;;;0.45;100.00;95370.69;5075964;28;20591;-71
2023/11/29 01:31:29;;;;;;;12.07;5.47;;;;;;;0.26;100.00;95376.66;5075987;28;20207;-70
2023/11/29 01:33:57;;;;;;;12.47;6.03;;;;;;;0.36;100.00;95361.13;5075865;28;20579;-71
2023/11/29 01:36:24;;;;;;;13.57;6.20;;;;;;;0.39;100.00;95358.25;5075093;28;20264;-71
2023/11/29 01:38:51;;;;;;;14.60;6.70;;;;;;;0.52;100.00;95362.19;5076206;28;20230;-70
2023/11/29 01:41:18;;;;;;;12.20;5.63;;;;;;;0.29;100.00;95376.38;5075514;28;20313;-71
2023/11/29 01:43:45;;;;;;;11.87;5.83;;;;;;;0.22;100.00;95372.72;5075548;28;20628;-71
2023/11/29 01:46:12;;;;;;;12.17;6.07;;;;;;;0.18;100.00;95373.94;5075348;28;20233;-70
2023/11/29 01:48:39;;;;;;;13.67;6.00;;;;;;;0.25;100.00;95372.44;5075780;28;20218;-70
2023/11/29 01:51:07;;;;;;;10.40;5.07;;;;;;;0.46;100.00;95373.13;5076026;28;20199;-70
2023/11/29 01:53:35;;;;;;;13.10;6.10;;;;;;;0.57;100.00;95369.56;5075943;28;20286;-70
2023/11/29 01:56:01;;;;;;;12.47;5.80;;;;;;;0.29;100.00;95366.03;5075109;28;20206;-70
2023/11/29 01:58:28;;;;;;;12.97;6.47;;;;;;;0.39;100.00;95355.66;5075237;28;20224;-71
2023/11/29 02:00:56;;;;;;;14.10;5.97;;;;;;;0.43;100.00;95357.03;5075664;28;20248;-70
2023/11/29 02:03:23;;;;;;;15.80;6.30;;;;;;;0.37;100.00;95348.03;5076207;28;20200;-71
2023/11/29 02:05:49;;;;;;;15.70;6.60;;;;;;;0.29;100.00;95363.44;5075482;28;20305;-72
2023/11/29 02:08:18;;;;;;;13.23;6.03;;;;;;;0.57;100.00;95348.84;5074875;28;20225;-70
2023/11/29 02:10:46;;;;;;;16.47;6.50;;;;;;;0.40;100.00;95344.34;5075275;28;20203;-71
2023/11/29 02:13:13;;;;;;;12.10;5.67;;;;;;;0.18;100.00;95352.41;5076842;28;20203;-70
2023/11/29 02:15:39;;;;;;;10.37;5.33;;;;;;;0.19;100.00;95354.88;5074898;28;20292;-70
2023/11/29 02:18:06;;;;;;;14.73;6.90;;;;;;;0.17;100.00;95361.94;5074542;28;20759;-71
2023/11/29 02:20:34;;;;;;;12.60;6.07;;;;;;;0.30;100.00;95349.53;5075838;28;20673;-71
2023/11/29 02:23:04;;;;;;;14.00;6.23;;;;;;;0.32;100.00;95344.19;5075790;28;20578;-70
2023/11/29 02:25:32;;;;;;;12.13;5.77;;;;;;;0.45;100.00;95334.41;5075536;28;20211;-71
2023/11/29 02:27:59;;;;;;;12.97;5.63;;;;;;;0.43;100.00;95342.28;5075344;28;20196;-70
2023/11/29 02:30:26;;;;;;;13.57;6.20;;;;;;;0.39;100.00;95343.53;5075718;28;20214;-71
2023/11/29 02:32:53;;;;;;;11.77;5.90;;;;;;;0.39;100.00;95338.34;5074886;28;20249;-70
2023/11/29 02:35:19;;;;;;;13.40;5.73;;;;;;;0.30;100.00;95331.41;5074650;28;20691;-71
2023/11/29 02:37:46;;;;;;;12.97;5.30;;;;;;;0.19;100.00;95331.56;5074517;28;20223;-72
2023/11/29 02:40:13;;;;;;;14.47;6.27;;;;;;;0.11;100.00;95326.22;5075274;28;20213;-70
2023/11/29 02:42:40;;;;;;;12.93;5.60;;;;;;;0.14;100.00;95327.72;5075213;28;20220;-71
2023/11/29 02:45:08;;;;;;;13.10;6.40;;;;;;;0.12;100.00;95334.81;5075502;28;20199;-70
2023/11/29 02:47:34;;;;;;;13.70;6.03;;;;;;;-0.19;100.00;95333.31;5074285;28;20225;-70
2023/11/29 02:50:01;;;;;;;13.83;5.90;;;;;;;-0.11;100.00;95335.22;5075212;28;20220;-71
2023/11/29 02:52:27;;;;;;;13.30;6.30;;;;;;;0.06;100.00;95337.94;5075832;28;20210;-69
2023/11/29 02:54:54;;;;;;;12.87;6.23;;;;;;;0.12;100.00;95338.22;5079048;28;20206;-71
2023/11/29 02:57:20;;;;;;;15.40;6.63;;;;;;;-0.09;100.00;95334.13;5078072;28;20211;-71
2023/11/29 02:59:48;;;;;;;14.67;6.53;;;;;;;-0.12;100.00;95338.75;5079185;28;20226;-71
2023/11/29 03:02:15;;;;;;;15.70;7.03;;;;;;;0.03;100.00;95333.06;5079275;28;20209;-70
2023/11/29 03:05:01;;;;;;;14.30;6.47;;;;;;;0.14;100.00;95330.31;5078691;28;20210;-71
2023/11/29 03:07:28;;;;;;;13.37;6.20;;;;;;;-0.10;100.00;95335.09;5076343;28;20207;-70
2023/11/29 03:09:54;;;;;;;15.80;6.13;;;;;;;-0.07;100.00;95326.25;5079130;28;20226;-70
2023/11/29 03:12:21;;;;;;;13.37;5.57;;;;;;;-0.04;100.00;95333.72;5077660;28;20693;-70
2023/11/29 03:14:49;;;;;;;16.13;6.37;;;;;;;0.18;100.00;95332.50;5079062;28;20221;-71
2023/11/29 03:17:16;;;;;;;15.27;6.40;;;;;;;-0.06;100.00;95348.56;5078480;28;20210;-70
2023/11/29 03:19:42;;;;;;;11.23;5.50;;;;;;;0.08;100.00;95336.84;5078127;28;20249;-71
2023/11/29 03:22:09;;;;;;;12.67;6.40;;;;;;;0.02;100.00;95345.16;5078717;28;20214;-70
2023/11/29 03:24:35;;;;;;;11.33;6.00;;;;;;;0.23;100.00;95340.69;5079136;28;20213;-70
2023/11/29 03:27:02;;;;;;;13.83;5.93;;;;;;;0.28;100.00;95338.50;5076846;28;20199;-71
2023/11/29 03:29:28;;;;;;;12.40;5.90;;;;;;;0.18;100.00;95344.66;5078443;28;20229;-71
2023/11/29 03:31:57;;;;;;;13.27;6.10;;;;;;;0.26;100.00;95347.38;5078835;28;20226;-70
2023/11/29 03:34:23;;;;;;;12.10;5.53;;;;;;;0.19;100.00;95339.31;5078135;28;20203;-70
2023/11/29 03:36:50;;;;;;;12.73;5.73;;;;;;;0.29;100.00;95334.94;5077482;28;20224;-70
2023/11/29 03:39:16;;;;;;;12.27;5.33;;;;;;;0.37;100.00;95335.09;5078947;28;20322;-70
2023/11/29 03:41:43;;;;;;;14.70;5.73;;;;;;;0.15;100.00;95337.97;5078277;28;20205;-70
2023/11/29 03:44:09;;;;;;;11.07;5.53;;;;;;;0.31;100.00;95335.63;5076909;28;20207;-70
2023/11/29 03:46:36;;;;;;;12.40;5.50;;;;;;;0.26;100.00;95337.00;5078074;28;20584;-69
2023/11/29 03:49:04;;;;;;;14.23;6.23;;;;;;;0.36;100.00;95333.44;5077209;28;20222;-71
2023/11/29 03:51:30;;;;;;;12.50;4.70;;;;;;;0.28;100.00;95341.09;5077769;28;20253;-71
2023/11/29 03:53:57;;;;;;;13.80;5.80;;;;;;;0.25;100.00;95332.78;5077543;28;20209;-70
2023/11/29 03:56:23;;;;;;;15.83;6.30;;;;;;;0.41;100.00;95327.84;5077536;28;20703;-71
2023/11/29 03:58:50;;;;;;;15.13;6.00;;;;;;;0.37;100.00;95319.53;5077701;28;20569;-70
2023/11/29 04:01:17;;;;;;;11.53;5.33;;;;;;;0.28;100.00;95319.53;5078356;28;20200;-71
2023/11/29 04:03:43;;;;;;;11.53;5.70;;;;;;;0.31;100.00;95322.69;5077456;28;20681;-70
2023/11/29 04:06:11;;;;;;;11.57;5.67;;;;;;;0.48;100.00;95324.56;5076900;28;20626;-72
2023/11/29 04:08:37;;;;;;;11.20;4.93;;;;;;;0.26;100.00;95324.84;5077703;28;20230;-70
2023/11/29 04:11:04;;;;;;;10.77;5.57;;;;;;;0.06;100.00;95325.84;5077659;28;20200;-71
2023/11/29 04:13:31;;;;;;;12.27;5.67;;;;;;;0.08;100.00;95331.69;5078321;28;20203;-70
2023/11/29 04:15:57;;;;;;;13.33;6.07;;;;;;;0.11;100.00;95326.22;5076917;28;20229;-70
2023/11/29 04:18:25;;;;;;;14.20;6.10;;;;;;;-0.08;100.00;95330.56;5076504;28;21070;-70
2023/11/29 04:20:51;;;;;;;11.47;5.07;;;;;;;0.08;100.00;95333.47;5077730;28;20197;-70
2023/11/29 04:23:19;;;;;;;12.07;5.37;;;;;;;0.16;100.00;95331.00;5077779;28;20199;-71
2023/11/29 04:25:46;;;;;;;13.13;6.60;;;;;;;-0.08;100.00;95334.94;5076471;28;20262;-71
2023/11/29 04:28:12;;;;;;;14.03;5.57;;;;;;;0.11;100.00;95325.41;5076564;28;20227;-71
2023/11/29 04:30:39;;;;;;;10.87;4.50;;;;;;;0.20;100.00;95322.81;5076787;28;20213;-70
2023/11/29 04:33:05;;;;;;;12.37;5.30;;;;;;;-0.10;100.00;95331.66;5077105;28;20207;-69
2023/11/29 04:35:32;;;;;;;16.33;6.10;;;;;;;0.07;100.00;95337.00;5077585;28;20202;-70
2023/11/29 04:37:58;;;;;;;12.43;4.90;;;;;;;0.00;100.00;95328.97;5076648;28;20238;-70
2023/11/29 04:40:26;;;;;;;13.97;5.43;;;;;;;0.26;100.00;95321.47;5076378;28;20203;-72
2023/11/29 04:42:52;;;;;;;11.57;5.17;;;;;;;0.19;100.00;95315.19;5077474;28;20700;-70
2023/11/29 04:45:19;;;;;;;13.97;5.07;;;;;;;0.18;100.00;95316.97;5077168;28;20199;-70
2023/11/29 04:47:45;;;;;;;11.20;5.10;;;;;;;0.27;100.00;95320.50;5076174;28;20204;-71
2023/11/29 04:50:12;;;;;;;14.43;5.17;;;;;;;0.28;100.00;95322.97;5077009;28;21202;-71
2023/11/29 04:52:39;;;;;;;13.07;5.33;;;;;;;0.05;100.00;95326.78;5078008;28;20261;-71
2023/11/29 04:55:07;;;;;;;12.20;4.63;;;;;;;0.20;100.00;95315.03;5076215;28;20629;-71
2023/11/29 04:57:34;;;;;;;11.13;5.27;;;;;;;0.12;100.00;95324.47;5076143;28;20207;-70
2023/11/29 05:00:01;;;;;;;10.47;4.87;;;;;;;-0.02;100.00;95324.06;5076779;28;20228;-70
2023/11/29 05:02:27;;;;;;;10.90;5.10;;;;;;;-0.04;100.00;95328.53;5076170;28;20208;-71
2023/11/29 05:04:54;;;;;;;11.30;4.93;;;;;;;-0.02;100.00;95329.25;5076644;28;20214;-69
2023/11/29 05:07:20;;;;;;;11.60;5.20;;;;;;;-0.03;100.00;95332.78;5076810;28;20212;-71
2023/11/29 05:09:47;;;;;;;13.40;5.33;;;;;;;0.09;100.00;95327.34;5076654;28;20234;-71
2023/11/29 05:12:13;;;;;;;12.97;5.43;;;;;;;-0.18;100.00;95332.34;5075882;28;20320;-72
2023/11/29 05:14:41;;;;;;;16.47;6.17;;;;;;;-0.03;100.00;95333.59;5076886;28;20219;-70
2023/11/29 05:17:08;;;;;;;12.20;5.50;;;;;;;-0.06;100.00;95327.84;5074979;28;20740;-71
2023/11/29 05:19:34;;;;;;;10.97;4.97;;;;;;;0.01;100.00;95319.41;5076159;28;20227;-71
2023/11/29 05:22:01;;;;;;;11.83;5.13;;;;;;;0.06;100.00;95328.44;5075962;28;20196;-70
2023/11/29 05:24:27;;;;;;;11.23;4.63;;;;;;;0.04;100.00;95329.50;5076450;28;20213;-70
2023/11/29 05:26:54;;;;;;;12.47;4.80;;;;;;;0.13;100.00;95324.31;5074941;28;20201;-70
2023/11/29 05:29:21;;;;;;;11.90;5.70;;;;;;;-0.12;100.00;95331.00;5076541;28;20299;-71
2023/11/29 05:31:48;;;;;;;17.07;5.50;;;;;;;0.11;100.00;95330.59;5076155;28;20962;-70
2023/11/29 05:34:15;;;;;;;12.23;5.40;;;;;;;0.12;100.00;95322.69;5076025;28;20204;-72
2023/11/29 05:36:41;;;;;;;14.93;5.57;;;;;;;0.12;100.00;95322.69;5075335;28;20213;-69
2023/11/29 05:39:09;;;;;;;15.30;5.60;;;;;;;0.10;100.00;95323.75;5075287;28;20719;-70
2023/11/29 05:41:35;;;;;;;14.70;6.37;;;;;;;0.06;100.00;95317.22;5076317;28;20220;-70
2023/11/29 05:44:02;;;;;;;10.97;5.27;;;;;;;0.07;100.00;95308.50;5076004;28;20214;-70
2023/11/29 05:46:28;;;;;;;12.30;5.43;;;;;;;0.13;100.00;95313.97;5075321;28;20211;-71
2023/11/29 05:48:56;;;;;;;13.23;5.40;;;;;;;0.31;100.00;95311.50;5076050;28;20216;-72
2023/11/29 05:51:22;;;;;;;11.20;5.50;;;;;;;0.13;100.00;95316.56;5076818;28;20217;-70
2023/11/29 05:53:49;;;;;;;13.00;5.50;;;;;;;-0.02;100.00;95320.50;5075520;28;20233;-70
2023/11/29 05:56:15;;;;;;;11.83;5.70;;;;;;;0.09;100.00;95315.19;5074891;28;20223;-70
2023/11/29 05:58:42;;;;;;;17.63;6.80;;;;;;;0.12;100.00;95321.88;5076759;28;20235;-71
2023/11/29 06:01:09;;;;;;;15.67;5.07;;;;;;;0.26;100.00;95319.69;5075363;28;20205;-71
2023/11/29 06:03:36;;;;;;;11.73;5.13;;;;;;;0.18;100.00;95319.56;5075300;28;20633;-71
2023/11/29 06:06:05;;;;;;;16.37;5.67;;;;;;;0.41;100.00;95318.31;5075173;28;20290;-72
2023/11/29 06:08:31;;;;;;;12.33;4.97;;;;;;;0.20;100.00;95315.03;5075224;28;20223;-69
2023/11/29 06:10:58;;;;;;;13.73;4.90;;;;;;;0.31;100.00;95317.50;5075441;28;20230;-69
2023/11/29 06:13:25;;;;;;;16.07;6.27;;;;;;;0.37;100.00;95316.94;5075543;28;20258;-72
2023/11/29 06:15:51;;;;;;;22.13;8.00;;;;;;;0.42;100.00;95317.34;5075620;28;20213;-70
2023/11/29 06:18:18;;;;;;;19.27;6.87;;;;;;;0.39;100.00;95317.59;5076451;28;20216;-70
2023/11/29 06:20:45;;;;;;;33.00;10.47;;;;;;;0.29;100.00;95319.38;5076444;28;20692;-70
2023/11/29 06:23:13;;;;;;;23.20;8.93;;;;;;;0.37;100.00;95322.13;5075218;28;20204;-71
2023/11/29 06:25:39;;;;;;;18.53;7.07;;;;;;;0.35;100.00;95328.41;5076370;28;20630;-70
2023/11/29 06:28:06;;;;;;;14.57;6.07;;;;;;;0.37;100.00;95332.50;5077709;28;20229;-70
2023/11/29 06:30:32;;;;;;;25.07;9.73;;;;;;;0.35;100.00;95324.03;5080534;28;20218;-70
2023/11/29 06:32:59;;;;;;;19.40;7.27;;;;;;;0.41;100.00;95333.00;5079087;28;20199;-71
2023/11/29 06:35:25;;;;;;;22.83;8.97;;;;;;;0.36;100.00;95325.66;5079903;28;20210;-71
2023/11/29 06:37:52;;;;;;;20.67;7.93;;;;;;;0.44;100.00;95330.97;5078312;28;20211;-71
2023/11/29 06:40:20;;;;;;;29.43;11.83;;;;;;;0.50;100.00;95327.84;5079483;28;20721;-72
2023/11/29 06:42:47;;;;;;;25.97;9.67;;;;;;;0.35;100.00;95329.22;5080744;28;20215;-70
2023/11/29 06:45:17;;;;;;;20.30;8.97;;;;;;;0.46;100.00;95331.66;5079716;28;20207;-71
2023/11/29 06:47:44;;;;;;;15.73;7.10;;;;;;;0.44;100.00;95332.75;5079383;28;20204;-70
2023/11/29 06:50:11;;;;;;;23.93;8.97;;;;;;;0.39;100.00;95335.75;5077519;28;20681;-70
2023/11/29 06:52:38;;;;;;;18.93;8.60;;;;;;;0.40;100.00;95331.41;5080684;28;20202;-70
2023/11/29 06:55:05;;;;;;;35.50;13.63;;;;;;;0.54;100.00;95329.19;5078904;28;20200;-71
2023/11/29 06:57:33;;;;;;;21.10;9.07;;;;;;;0.59;100.00;95322.63;5079096;28;21109;-72
2023/11/29 06:59:59;;;;;;;18.67;7.80;;;;;;;0.55;100.00;95333.44;5079330;28;20219;-72
2023/11/29 07:02:26;;;;;;;18.10;6.13;;;;;;;0.64;100.00;95325.63;5079080;28;20576;-72
2023/11/29 07:04:52;;;;;;;14.87;6.20;;;;;;;0.74;100.00;95320.44;5078849;28;20212;-72
2023/11/29 07:07:19;;;;;;;14.83;6.57;;;;;;;0.83;100.00;95328.16;5076996;28;20210;-70
2023/11/29 07:09:46;;;;;;;12.80;4.90;;;;;;;0.89;100.00;95332.81;5075006;28;20217;-72
2023/11/29 07:12:12;;;;;;;18.73;6.57;;;;;;;0.95;100.00;95334.81;5077958;28;20275;-71
2023/11/29 07:14:40;;;;;;;17.87;6.13;;;;;;;1.04;100.00;95331.38;5078379;28;20214;-72
2023/11/29 07:17:06;;;;;;;32.87;10.90;;;;;;;0.73;100.00;95326.56;5078063;28;20226;-70
2023/11/29 07:19:34;;;;;;;20.53;7.67;;;;;;;0.97;100.00;95332.06;5077997;28;20979;-72
2023/11/29 07:22:01;;;;;;;11.87;5.13;;;;;;;0.70;100.00;95326.81;5075981;28;20673;-69
2023/11/29 07:24:27;;;;;;;14.87;4.80;;;;;;;0.95;100.00;95328.81;5077595;28;20210;-72
2023/11/29 07:26:54;;;;;;;14.03;5.67;;;;;;;0.97;100.00;95327.72;5077315;28;20223;-72
2023/11/29 07:29:20;;;;;;;13.93;4.87;;;;;;;0.96;100.00;95325.28;5075108;28;20590;-73
2023/11/29 07:31:51;;;;;;;9.83;4.17;;;;;;;2.73;100.00;95310.41;5075502;28;20203;-72
2023/11/29 07:34:17;;;;;;;15.70;5.60;;;;;;;3.20;100.00;95313.28;5077764;28;20543;-72
2023/11/29 07:36:44;;;;;;;11.90;5.50;;;;;;;2.54;100.00;95315.78;5077786;28;20238;-72
2023/11/29 07:39:10;;;;;;;16.43;5.70;;;;;;;2.48;100.00;95314.59;5078046;28;20231;-71
2023/11/29 07:41:37;;;;;;;13.67;6.00;;;;;;;1.73;100.00;95317.78;5077733;28;20214;-71
2023/11/29 07:44:04;;;;;;;10.27;4.57;;;;;;;1.71;100.00;95324.09;5077664;28;20665;-69
2023/11/29 07:46:30;;;;;;;8.20;4.03;;;;;;;1.56;100.00;95320.34;5076747;28;20249;-72
2023/11/29 07:48:58;;;;;;;11.00;4.17;;;;;;;1.66;100.00;95319.34;5077588;28;21149;-72
2023/11/29 07:51:25;;;;;;;7.70;3.23;;;;;;;1.55;100.00;95319.53;5078421;28;20203;-72
2023/11/29 07:53:52;;;;;;;7.50;3.57;;;;;;;1.45;100.00;95331.75;5077924;28;20715;-72
2023/11/29 07:56:18;;;;;;;9.30;4.47;;;;;;;1.53;100.00;95331.84;5077281;28;20322;-72
2023/11/29 07:58:46;;;;;;;7.83;4.07;;;;;;;1.56;100.00;95331.53;5078192;28;21156;-68
2023/11/29 08:01:13;;;;;;;9.37;3.50;;;;;;;1.69;100.00;95331.22;5077185;28;20204;-68
2023/11/29 08:03:39;;;;;;;7.97;3.07;;;;;;;1.81;100.00;95328.25;5077193;28;20199;-72
2023/11/29 08:06:08;;;;;;;9.33;3.93;;;;;;;1.91;100.00;95326.44;5077191;28;20376;-72
2023/11/29 08:08:35;;;;;;;7.73;3.50;;;;;;;1.69;100.00;95315.63;5076435;28;20238;-68
2023/11/29 08:11:01;;;;;;;6.27;3.50;;;;;;;1.39;100.00;95319.34;5075888;28;20225;-70
2023/11/29 08:13:29;;;;;;;9.13;4.17;;;;;;;1.66;100.00;95316.72;5076310;28;20204;-69
2023/11/29 08:15:56;;;;;;;8.27;4.03;;;;;;;1.35;100.00;95312.81;5075449;28;20267;-69
2023/11/29 08:18:22;;;;;;;6.17;2.97;;;;;;;1.61;100.00;95313.75;5076473;28;20239;-69
2023/11/29 08:20:49;;;;;;;9.27;3.70;;;;;;;1.43;100.00;95305.13;5076625;28;20229;-71
2023/11/29 08:23:17;;;;;;;7.20;2.97;;;;;;;1.77;100.00;95284.53;5075914;28;20538;-68
2023/11/29 08:25:44;;;;;;;9.20;3.43;;;;;;;1.57;100.00;95281.25;5076625;28;20293;-68
2023/11/29 08:28:11;;;;;;;8.37;4.07;;;;;;;1.75;100.00;95289.09;5075865;28;20725;-72
2023/11/29 08:30:37;;;;;;;7.53;3.67;;;;;;;1.72;100.00;95298.00;5076149;28;20207;-68
2023/11/29 08:33:04;;;;;;;7.77;4.10;;;;;;;1.73;100.00;95299.59;5075843;28;20208;-69
2023/11/29 08:35:30;;;;;;;8.97;3.77;;;;;;;1.74;100.00;95305.63;5076255;28;20669;-72
2023/11/29 08:37:57;;;;;;;9.27;4.80;;;;;;;1.76;100.00;95325.28;5076277;28;20206;-69
2023/11/29 08:40:24;;;;;;;6.97;3.47;;;;;;;1.95;100.00;95322.56;5077064;28;20220;-70
2023/11/29 08:42:51;;;;;;;13.77;5.47;;;;;;;1.92;100.00;95343.63;5074435;28;20210;-71
2023/11/29 08:45:17;;;;;;;7.77;3.63;;;;;;;1.78;100.00;95346.72;5076508;28;20665;-70
2023/11/29 08:47:44;;;;;;;7.27;3.57;;;;;;;1.85;100.00;95343.41;5075054;28;20742;-70
2023/11/29 08:50:10;;;;;;;6.20;2.63;;;;;;;1.84;100.00;95339.16;5074402;28;20234;-73
2023/11/29 08:52:37;;;;;;;8.93;4.23;;;;;;;1.96;100.00;95339.75;5076200;28;20218;-72
2023/11/29 08:55:05;;;;;;;8.90;3.67;;;;;;;1.96;100.00;95334.56;5075921;28;20322;-71
2023/11/29 08:57:32;;;;;;;9.23;3.20;;;;;;;2.19;100.00;95330.56;5073682;28;20580;-71
2023/11/29 08:59:59;;;;;;;8.80;4.57;;;;;;;2.12;100.00;95334.75;5075574;28;20234;-70
2023/11/29 09:02:27;;;;;;;9.17;4.17;;;;;;;2.07;100.00;95331.78;5076591;28;20203;-70
2023/11/29 09:04:53;;;;;;;6.43;3.47;;;;;;;2.39;100.00;95326.88;5076552;28;20203;-70
2023/11/29 09:07:20;;;;;;;4.87;2.57;;;;;;;2.15;100.00;95324.88;5076217;28;20206;-73
2023/11/29 09:09:47;;;;;;;6.20;3.37;;;;;;;2.31;100.00;95321.59;5076053;28;20228;-72
2023/11/29 09:12:15;;;;;;;7.93;3.43;;;;;;;2.45;100.00;95319.28;5076183;28;20665;-69
2023/11/29 09:14:44;;;;;;;11.20;4.27;;;;;;;2.56;100.00;95325.06;5075770;28;20237;-71
2023/11/29 09:17:10;;;;;;;9.37;4.07;;;;;;;2.24;100.00;95318.78;5076519;28;20249;-74
2023/11/29 09:19:37;;;;;;;10.20;3.50;;;;;;;2.11;100.00;95312.31;5076427;28;20227;-72
2023/11/29 09:22:04;;;;;;;8.67;3.40;;;;;;;2.54;100.00;95294.97;5076113;28;20551;-71
2023/11/29 09:24:30;;;;;;;5.70;2.83;;;;;;;2.57;100.00;95294.66;5076639;28;20204;-70
2023/11/29 09:26:57;;;;;;;5.53;3.23;;;;;;;2.65;100.00;95292.16;5076596;28;20229;-70
2023/11/29 09:29:25;;;;;;;5.97;2.70;;;;;;;2.57;100.00;95292.91;5077125;28;20228;-71
2023/11/29 09:31:53;;;;;;;5.23;2.97;;;;;;;2.57;100.00;95295.50;5075138;28;20201;-72
2023/11/29 09:34:20;;;;;;;6.60;3.37;;;;;;;2.67;100.00;95296.22;5075166;28;20203;-72
2023/11/29 09:36:47;;;;;;;6.20;2.87;;;;;;;2.40;100.00;95305.13;5075464;28;20587;-72
2023/11/29 09:39:16;;;;;;;8.03;3.57;;;;;;;2.55;100.00;95302.63;5074626;28;20684;-69
2023/11/29 09:41:45;;;;;;;5.17;3.20;;;;;;;2.58;100.00;95317.09;5076330;28;20214;-71
2023/11/29 09:44:12;;;;;;;5.83;2.63;;;;;;;2.52;100.00;95308.13;5075727;28;20200;-69
2023/11/29 09:46:39;;;;;;;6.37;3.07;;;;;;;2.41;100.00;95310.97;5074870;28;20678;-72
2023/11/29 09:49:07;;;;;;;5.10;2.30;;;;;;;2.72;100.00;95306.97;5075337;28;20369;-69
2023/11/29 09:51:33;;;;;;;4.63;2.40;;;;;;;2.54;100.00;95316.56;5075256;28;20213;-73
2023/11/29 09:54:00;;;;;;;4.67;2.83;;;;;;;2.62;100.00;95308.88;5075058;28;20204;-75
2023/11/29 09:56:27;;;;;;;7.10;3.03;;;;;;;2.78;100.00;95316.75;5074575;28;20208;-73
2023/11/29 09:58:54;;;;;;;5.10;2.83;;;;;;;2.45;100.00;95314.88;5075321;28;20258;-72
2023/11/29 10:01:21;;;;;;;4.07;2.47;;;;;;;2.71;100.00;95318.34;5075888;28;21037;-75
2023/11/29 10:04:01;;;;;;;2.40;1.73;;;;;;;2.71;100.00;95313.16;5075205;28;20235;-73
2023/11/29 10:06:30;;;;;;;4.93;2.50;;;;;;;2.66;100.00;95310.19;5075194;28;20690;-71
2023/11/29 10:08:56;;;;;;;9.83;3.67;;;;;;;2.83;100.00;95309.31;5075045;28;20774;-73
2023/11/29 10:11:25;;;;;;;7.27;3.43;;;;;;;2.59;100.00;95309.16;5074470;28;20479;-74
2023/11/29 10:13:51;;;;;;;4.90;2.80;;;;;;;2.66;100.00;95310.19;5074699;28;20294;-72
2023/11/29 10:16:20;;;;;;;5.37;2.80;;;;;;;2.63;100.00;95304.47;5074478;28;20681;-70
2023/11/29 10:18:47;;;;;;;5.83;2.60;;;;;;;2.60;100.00;95309.97;5074503;28;20255;-68
2023/11/29 10:21:14;;;;;;;5.20;2.90;;;;;;;2.68;100.00;95291.81;5071197;28;20220;-69
2023/11/29 10:23:44;;;;;;;4.37;2.30;;;;;;;2.76;100.00;95292.72;5073564;28;20212;-73
2023/11/29 10:26:11;;;;;;;3.80;2.10;;;;;;;2.53;100.00;95288.97;5073668;28;20614;-71
2023/11/29 10:28:40;;;;;;;5.47;2.60;;;;;;;2.60;100.00;95284.78;5074118;28;20259;-72
2023/11/29 10:31:07;;;;;;;4.07;2.10;;;;;;;2.80;100.00;95291.44;5074131;28;20208;-69
2023/11/29 10:33:35;;;;;;;5.50;2.83;;;;;;;3.01;100.00;95273.66;5072818;28;20207;-72
2023/11/29 10:36:02;;;;;;;4.90;2.57;;;;;;;3.02;100.00;95273.50;5070489;28;20204;-72
2023/11/29 10:38:29;;;;;;;6.47;3.10;;;;;;;3.11;100.00;95276.97;5073201;28;20222;-70
2023/11/29 10:41:01;;;;;;;6.07;2.80;;;;;;;3.27;100.00;95269.22;5071686;28;20838;-69
2023/11/29 10:43:30;;;;;;;6.30;2.30;;;;;;;3.49;100.00;95250.41;5072783;28;20204;-70
2023/11/29 10:46:04;;;;;;;4.50;2.47;;;;;;;3.40;100.00;95251.38;5072127;28;20239;-70
2023/11/29 10:48:31;;;;;;;3.50;2.13;;;;;;;3.27;100.00;95245.78;5072115;28;20229;-71
2023/11/29 10:50:58;;;;;;;3.00;1.83;;;;;;;3.20;100.00;95247.41;5071746;28;20709;-71
2023/11/29 10:53:25;;;;;;;2.07;1.47;;;;;;;3.07;100.00;95254.81;5073158;28;20204;-70
2023/11/29 10:55:52;;;;;;;4.93;2.77;;;;;;;3.16;100.00;95244.28;5071858;28;20211;-71
2023/11/29 10:58:24;;;;;;;7.63;2.33;;;;;;;3.37;100.00;95244.69;5072261;28;21197;-70
2023/11/29 11:00:52;;;;;;;3.87;2.30;;;;;;;3.39;100.00;95253.16;5070781;28;20339;-74
2023/11/29 11:03:48;;;;;;;4.37;2.53;;;;;;;3.80;100.00;95234.88;5070966;28;20212;-69
2023/11/29 11:06:38;;;;;;;4.63;1.80;;;;;;;4.14;100.00;95230.34;5009890;28;20364;-69
2023/11/29 11:09:26;;;;;;;1.63;1.50;;;;;;;3.60;100.00;95234.50;5066767;28;20593;-69
2023/11/29 11:11:52;;;;;;;3.87;1.87;;;;;;;3.77;100.00;95229.97;5070901;28;20203;-69
2023/11/29 11:14:23;;;;;;;3.23;2.27;;;;;;;3.85;100.00;95229.19;5073983;28;20724;-71
2023/11/29 11:17:02;;;;;;;3.40;1.73;;;;;;;4.06;100.00;95225.13;5074383;28;20702;-71
2023/11/29 11:19:30;;;;;;;3.83;1.77;;;;;;;3.79;100.00;95225.44;5075998;28;20614;-72
2023/11/29 11:21:57;;;;;;;3.83;2.30;;;;;;;3.81;100.00;95222.66;5075091;28;20225;-69
2023/11/29 11:24:57;;;;;;;2.57;1.60;;;;;;;4.09;100.00;95222.19;5076573;28;20205;-71
2023/11/29 11:27:26;;;;;;;4.37;2.20;;;;;;;3.88;100.00;95218.44;5074553;28;21244;-72